< < Back
Terminal Aerodrome Forecast


Current Version              Previous Versions:   1  2  3  4  5  6  7  8  9  

Terminal Aerodrome Forecast

950
FTUS42 KCHS 180500
TAFCHS
TAF
KCHS 180527Z 1806/1906 06006KT P6SM BKN250
     FM181000 03010G16KT P6SM SCT025 BKN040
     FM181400 03012G19KT P6SM SCT015 BKN035
      TEMPO 1820/1823 6SM -RA SCT010 BKN020
     FM182300 06013G21KT 4SM RA BR SCT008 OVC015=



Latest METAR

934
SAUS80 KWBC 182000 CCB
MTRCHS
METAR KCHS 181956Z 08011G19KT 10SM -RA FEW025 OVC060 18/12 A3014 RMK AO2
RAB51 SLP206 P0000 T01830122


USA.gov is the U.S. government's official web portal to all federal, state and local government web resources and services.